sensor_id;sensor_type;location;lat;lon;timestamp;P1;durP1;ratioP1;P2;durP2;ratioP2
62798;SDS011;48842;51.046;13.796;2022-11-02T00:00:26;42.00;;;25.37;;
62798;SDS011;48842;51.046;13.796;2022-11-02T00:02:52;42.87;;;23.13;;
62798;SDS011;48842;51.046;13.796;2022-11-02T00:05:18;39.57;;;24.00;;
62798;SDS011;48842;51.046;13.796;2022-11-02T00:07:48;36.50;;;22.00;;
62798;SDS011;48842;51.046;13.796;2022-11-02T00:10:18;37.87;;;23.00;;
62798;SDS011;48842;51.046;13.796;2022-11-02T00:12:44;36.80;;;23.10;;
62798;SDS011;48842;51.046;13.796;2022-11-02T00:15:10;40.33;;;23.23;;
62798;SDS011;48842;51.046;13.796;2022-11-02T00:17:36;37.77;;;23.50;;
62798;SDS011;48842;51.046;13.796;2022-11-02T00:20:04;43.33;;;24.60;;
62798;SDS011;48842;51.046;13.796;2022-11-02T00:22:36;39.80;;;23.90;;
62798;SDS011;48842;51.046;13.796;2022-11-02T00:25:05;40.40;;;23.67;;
62798;SDS011;48842;51.046;13.796;2022-11-02T00:27:32;40.07;;;24.10;;
62798;SDS011;48842;51.046;13.796;2022-11-02T00:29:59;39.60;;;23.50;;
62798;SDS011;48842;51.046;13.796;2022-11-02T00:32:24;41.53;;;24.90;;
62798;SDS011;48842;51.046;13.796;2022-11-02T00:34:50;40.20;;;24.83;;
62798;SDS011;48842;51.046;13.796;2022-11-02T00:37:15;42.10;;;25.17;;
62798;SDS011;48842;51.046;13.796;2022-11-02T00:39:40;38.80;;;22.03;;
62798;SDS011;48842;51.046;13.796;2022-11-02T00:42:06;39.97;;;23.60;;
62798;SDS011;48842;51.046;13.796;2022-11-02T00:44:31;39.07;;;22.57;;
62798;SDS011;48842;51.046;13.796;2022-11-02T00:46:56;39.37;;;22.80;;
62798;SDS011;48842;51.046;13.796;2022-11-02T00:49:22;37.90;;;23.50;;
62798;SDS011;48842;51.046;13.796;2022-11-02T00:51:47;38.33;;;23.70;;
62798;SDS011;48842;51.046;13.796;2022-11-02T00:54:12;36.40;;;21.80;;
62798;SDS011;48842;51.046;13.796;2022-11-02T00:56:37;42.37;;;22.17;;
62798;SDS011;48842;51.046;13.796;2022-11-02T00:59:03;41.23;;;23.50;;
62798;SDS011;48842;51.046;13.796;2022-11-02T01:01:29;44.90;;;23.90;;
62798;SDS011;48842;51.046;13.796;2022-11-02T01:03:55;36.20;;;22.90;;
62798;SDS011;48842;51.046;13.796;2022-11-02T01:06:20;38.90;;;22.53;;
62798;SDS011;48842;51.046;13.796;2022-11-02T01:08:46;36.80;;;22.23;;
62798;SDS011;48842;51.046;13.796;2022-11-02T01:11:18;41.40;;;23.03;;
62798;SDS011;48842;51.046;13.796;2022-11-02T01:13:46;39.63;;;22.40;;
62798;SDS011;48842;51.046;13.796;2022-11-02T01:16:11;31.93;;;21.13;;
62798;SDS011;48842;51.046;13.796;2022-11-02T01:18:38;37.90;;;23.83;;
62798;SDS011;48842;51.046;13.796;2022-11-02T01:21:04;43.53;;;23.30;;
62798;SDS011;48842;51.046;13.796;2022-11-02T01:23:30;40.93;;;23.07;;
62798;SDS011;48842;51.046;13.796;2022-11-02T01:25:57;43.20;;;23.00;;
62798;SDS011;48842;51.046;13.796;2022-11-02T01:28:22;43.27;;;24.20;;
62798;SDS011;48842;51.046;13.796;2022-11-02T01:30:47;39.93;;;22.50;;
62798;SDS011;48842;51.046;13.796;2022-11-02T01:33:13;38.43;;;22.20;;
62798;SDS011;48842;51.046;13.796;2022-11-02T01:35:38;40.20;;;23.13;;
62798;SDS011;48842;51.046;13.796;2022-11-02T01:38:03;41.33;;;23.70;;
62798;SDS011;48842;51.046;13.796;2022-11-02T01:40:35;37.83;;;22.23;;
62798;SDS011;48842;51.046;13.796;2022-11-02T01:43:22;40.87;;;23.90;;
62798;SDS011;48842;51.046;13.796;2022-11-02T01:45:49;37.37;;;23.40;;
62798;SDS011;48842;51.046;13.796;2022-11-02T01:48:18;40.97;;;23.40;;
62798;SDS011;48842;51.046;13.796;2022-11-02T01:50:48;37.80;;;23.73;;
62798;SDS011;48842;51.046;13.796;2022-11-02T01:53:14;40.27;;;23.10;;
62798;SDS011;48842;51.046;13.796;2022-11-02T01:55:39;44.63;;;23.50;;
62798;SDS011;48842;51.046;13.796;2022-11-02T01:58:06;39.47;;;22.57;;
62798;SDS011;48842;51.046;13.796;2022-11-02T02:00:34;41.47;;;23.77;;
62798;SDS011;48842;51.046;13.796;2022-11-02T02:03:06;32.00;;;20.37;;
62798;SDS011;48842;51.046;13.796;2022-11-02T02:05:52;42.53;;;23.10;;
62798;SDS011;48842;51.046;13.796;2022-11-02T02:08:22;38.00;;;20.83;;
62798;SDS011;48842;51.046;13.796;2022-11-02T02:10:49;37.30;;;23.40;;
62798;SDS011;48842;51.046;13.796;2022-11-02T02:13:15;40.47;;;22.53;;
62798;SDS011;48842;51.046;13.796;2022-11-02T02:18:45;40.93;;;22.50;;
62798;SDS011;48842;51.046;13.796;2022-11-02T02:29:45;42.00;;;21.70;;
62798;SDS011;48842;51.046;13.796;2022-11-02T02:32:37;42.03;;;23.80;;
62798;SDS011;48842;51.046;13.796;2022-11-02T02:35:41;35.10;;;21.20;;
62798;SDS011;48842;51.046;13.796;2022-11-02T02:38:12;38.23;;;22.20;;
62798;SDS011;48842;51.046;13.796;2022-11-02T02:40:45;38.43;;;22.13;;
62798;SDS011;48842;51.046;13.796;2022-11-02T02:43:20;34.97;;;20.50;;
62798;SDS011;48842;51.046;13.796;2022-11-02T02:45:55;44.87;;;23.43;;
62798;SDS011;48842;51.046;13.796;2022-11-02T02:48:30;37.27;;;21.80;;
62798;SDS011;48842;51.046;13.796;2022-11-02T02:51:01;37.00;;;21.70;;
62798;SDS011;48842;51.046;13.796;2022-11-02T02:53:32;42.60;;;22.57;;
62798;SDS011;48842;51.046;13.796;2022-11-02T02:56:02;41.17;;;23.07;;
62798;SDS011;48842;51.046;13.796;2022-11-02T02:58:31;38.10;;;22.63;;
62798;SDS011;48842;51.046;13.796;2022-11-02T03:01:02;42.30;;;22.20;;
62798;SDS011;48842;51.046;13.796;2022-11-02T03:03:29;41.53;;;22.57;;
62798;SDS011;48842;51.046;13.796;2022-11-02T03:06:00;44.60;;;23.17;;
62798;SDS011;48842;51.046;13.796;2022-11-02T03:08:37;42.87;;;21.97;;
62798;SDS011;48842;51.046;13.796;2022-11-02T03:16:34;41.30;;;19.90;;
62798;SDS011;48842;51.046;13.796;2022-11-02T03:22:01;34.80;;;20.40;;
62798;SDS011;48842;51.046;13.796;2022-11-02T03:27:13;38.93;;;19.90;;
62798;SDS011;48842;51.046;13.796;2022-11-02T03:29:50;33.77;;;19.33;;
62798;SDS011;48842;51.046;13.796;2022-11-02T03:32:23;34.70;;;19.70;;
62798;SDS011;48842;51.046;13.796;2022-11-02T03:34:56;43.13;;;20.97;;
62798;SDS011;48842;51.046;13.796;2022-11-02T03:37:28;40.40;;;22.33;;
62798;SDS011;48842;51.046;13.796;2022-11-02T03:40:42;40.10;;;22.13;;
62798;SDS011;48842;51.046;13.796;2022-11-02T03:42:53;44.53;;;23.27;;
62798;SDS011;48842;51.046;13.796;2022-11-02T03:45:21;45.63;;;23.60;;
62798;SDS011;48842;51.046;13.796;2022-11-02T03:47:54;49.87;;;25.30;;
62798;SDS011;48842;51.046;13.796;2022-11-02T03:50:24;41.67;;;25.60;;
62798;SDS011;48842;51.046;13.796;2022-11-02T03:53:00;53.23;;;27.27;;
62798;SDS011;48842;51.046;13.796;2022-11-02T03:55:35;47.30;;;26.83;;
62798;SDS011;48842;51.046;13.796;2022-11-02T03:58:03;51.30;;;29.27;;
62798;SDS011;48842;51.046;13.796;2022-11-02T04:00:31;50.53;;;29.83;;
62798;SDS011;48842;51.046;13.796;2022-11-02T04:02:59;57.00;;;30.30;;
62798;SDS011;48842;51.046;13.796;2022-11-02T04:05:31;57.60;;;27.83;;
62798;SDS011;48842;51.046;13.796;2022-11-02T04:07:59;51.40;;;26.50;;
62798;SDS011;48842;51.046;13.796;2022-11-02T04:10:43;50.13;;;24.30;;
62798;SDS011;48842;51.046;13.796;2022-11-02T04:13:27;42.27;;;21.30;;
62798;SDS011;48842;51.046;13.796;2022-11-02T04:16:12;38.63;;;21.13;;
62798;SDS011;48842;51.046;13.796;2022-11-02T04:18:38;39.43;;;21.90;;
62798;SDS011;48842;51.046;13.796;2022-11-02T04:21:22;41.30;;;21.77;;
62798;SDS011;48842;51.046;13.796;2022-11-02T04:23:47;42.57;;;21.93;;
62798;SDS011;48842;51.046;13.796;2022-11-02T04:26:31;36.47;;;17.87;;
62798;SDS011;48842;51.046;13.796;2022-11-02T04:28:56;37.57;;;19.90;;
62798;SDS011;48842;51.046;13.796;2022-11-02T04:31:22;30.53;;;17.57;;
62798;SDS011;48842;51.046;13.796;2022-11-02T04:33:47;29.97;;;17.10;;
62798;SDS011;48842;51.046;13.796;2022-11-02T04:36:12;26.93;;;15.50;;
62798;SDS011;48842;51.046;13.796;2022-11-02T04:38:38;28.17;;;16.57;;
62798;SDS011;48842;51.046;13.796;2022-11-02T04:41:06;34.90;;;18.33;;
62798;SDS011;48842;51.046;13.796;2022-11-02T04:43:55;35.17;;;17.43;;
62798;SDS011;48842;51.046;13.796;2022-11-02T04:46:21;37.70;;;18.23;;
62798;SDS011;48842;51.046;13.796;2022-11-02T04:48:47;36.10;;;18.60;;
62798;SDS011;48842;51.046;13.796;2022-11-02T04:51:12;36.47;;;18.40;;
62798;SDS011;48842;51.046;13.796;2022-11-02T04:53:38;29.80;;;17.60;;
62798;SDS011;48842;51.046;13.796;2022-11-02T04:56:04;29.13;;;16.00;;
62798;SDS011;48842;51.046;13.796;2022-11-02T04:58:29;30.67;;;16.07;;
62798;SDS011;48842;51.046;13.796;2022-11-02T05:00:55;27.53;;;15.70;;
62798;SDS011;48842;51.046;13.796;2022-11-02T05:03:20;30.70;;;16.87;;
62798;SDS011;48842;51.046;13.796;2022-11-02T05:05:45;30.83;;;17.30;;
62798;SDS011;48842;51.046;13.796;2022-11-02T05:08:10;31.03;;;17.80;;
62798;SDS011;48842;51.046;13.796;2022-11-02T05:10:36;32.47;;;17.93;;
62798;SDS011;48842;51.046;13.796;2022-11-02T05:13:01;35.70;;;18.73;;
62798;SDS011;48842;51.046;13.796;2022-11-02T05:15:27;30.57;;;17.27;;
62798;SDS011;48842;51.046;13.796;2022-11-02T05:17:52;30.03;;;17.53;;
62798;SDS011;48842;51.046;13.796;2022-11-02T05:20:18;39.50;;;20.70;;
62798;SDS011;48842;51.046;13.796;2022-11-02T05:22:43;34.80;;;17.70;;
62798;SDS011;48842;51.046;13.796;2022-11-02T05:25:11;35.20;;;17.90;;
62798;SDS011;48842;51.046;13.796;2022-11-02T05:27:37;34.17;;;19.27;;
62798;SDS011;48842;51.046;13.796;2022-11-02T05:30:03;36.27;;;17.90;;
62798;SDS011;48842;51.046;13.796;2022-11-02T05:32:29;32.10;;;16.70;;
62798;SDS011;48842;51.046;13.796;2022-11-02T05:34:55;31.03;;;17.70;;
62798;SDS011;48842;51.046;13.796;2022-11-02T05:37:20;33.77;;;17.80;;
62798;SDS011;48842;51.046;13.796;2022-11-02T05:39:46;34.17;;;18.10;;
62798;SDS011;48842;51.046;13.796;2022-11-02T05:42:12;33.80;;;17.90;;
62798;SDS011;48842;51.046;13.796;2022-11-02T05:44:37;32.40;;;17.50;;
62798;SDS011;48842;51.046;13.796;2022-11-02T05:47:02;33.60;;;16.97;;
62798;SDS011;48842;51.046;13.796;2022-11-02T05:49:28;33.50;;;17.10;;
62798;SDS011;48842;51.046;13.796;2022-11-02T05:51:53;32.07;;;16.80;;
62798;SDS011;48842;51.046;13.796;2022-11-02T05:54:19;37.73;;;17.30;;
62798;SDS011;48842;51.046;13.796;2022-11-02T05:56:44;30.80;;;16.80;;
62798;SDS011;48842;51.046;13.796;2022-11-02T05:59:09;33.57;;;16.00;;
62798;SDS011;48842;51.046;13.796;2022-11-02T06:01:34;30.10;;;17.60;;
62798;SDS011;48842;51.046;13.796;2022-11-02T06:04:00;33.80;;;17.77;;
62798;SDS011;48842;51.046;13.796;2022-11-02T06:06:25;31.50;;;16.90;;
62798;SDS011;48842;51.046;13.796;2022-11-02T06:08:50;26.70;;;16.70;;
62798;SDS011;48842;51.046;13.796;2022-11-02T06:11:16;33.83;;;16.60;;
62798;SDS011;48842;51.046;13.796;2022-11-02T06:13:41;27.77;;;16.10;;
62798;SDS011;48842;51.046;13.796;2022-11-02T06:16:07;32.83;;;17.20;;
62798;SDS011;48842;51.046;13.796;2022-11-02T06:18:35;30.43;;;15.20;;
62798;SDS011;48842;51.046;13.796;2022-11-02T06:21:01;29.60;;;16.70;;
62798;SDS011;48842;51.046;13.796;2022-11-02T06:23:26;34.40;;;17.00;;
62798;SDS011;48842;51.046;13.796;2022-11-02T06:25:53;28.33;;;15.60;;
62798;SDS011;48842;51.046;13.796;2022-11-02T06:28:20;30.43;;;15.97;;
62798;SDS011;48842;51.046;13.796;2022-11-02T06:30:46;30.73;;;16.07;;
62798;SDS011;48842;51.046;13.796;2022-11-02T06:33:13;28.40;;;16.53;;
62798;SDS011;48842;51.046;13.796;2022-11-02T06:35:39;25.97;;;13.80;;
62798;SDS011;48842;51.046;13.796;2022-11-02T06:38:04;25.77;;;14.93;;
62798;SDS011;48842;51.046;13.796;2022-11-02T06:40:29;28.63;;;14.30;;
62798;SDS011;48842;51.046;13.796;2022-11-02T06:42:55;26.37;;;14.63;;
62798;SDS011;48842;51.046;13.796;2022-11-02T06:45:22;23.43;;;13.87;;
62798;SDS011;48842;51.046;13.796;2022-11-02T06:47:47;25.73;;;14.60;;
62798;SDS011;48842;51.046;13.796;2022-11-02T06:50:13;22.77;;;14.27;;
62798;SDS011;48842;51.046;13.796;2022-11-02T06:52:45;31.13;;;15.30;;
62798;SDS011;48842;51.046;13.796;2022-11-02T06:55:11;28.80;;;13.40;;
62798;SDS011;48842;51.046;13.796;2022-11-02T06:57:38;27.00;;;15.83;;
62798;SDS011;48842;51.046;13.796;2022-11-02T07:00:05;24.57;;;13.50;;
62798;SDS011;48842;51.046;13.796;2022-11-02T07:02:33;29.30;;;14.30;;
62798;SDS011;48842;51.046;13.796;2022-11-02T07:04:58;26.13;;;12.33;;
62798;SDS011;48842;51.046;13.796;2022-11-02T07:07:24;27.83;;;13.13;;
62798;SDS011;48842;51.046;13.796;2022-11-02T07:09:49;28.83;;;14.10;;
62798;SDS011;48842;51.046;13.796;2022-11-02T07:12:14;31.23;;;12.30;;
62798;SDS011;48842;51.046;13.796;2022-11-02T07:14:39;23.60;;;11.73;;
62798;SDS011;48842;51.046;13.796;2022-11-02T07:17:05;27.87;;;11.80;;
62798;SDS011;48842;51.046;13.796;2022-11-02T07:19:30;25.53;;;11.17;;
62798;SDS011;48842;51.046;13.796;2022-11-02T07:21:55;18.63;;;10.50;;
62798;SDS011;48842;51.046;13.796;2022-11-02T07:24:21;23.10;;;9.97;;
62798;SDS011;48842;51.046;13.796;2022-11-02T07:26:47;18.50;;;10.73;;
62798;SDS011;48842;51.046;13.796;2022-11-02T07:29:14;21.20;;;11.80;;
62798;SDS011;48842;51.046;13.796;2022-11-02T07:31:39;24.07;;;11.40;;
62798;SDS011;48842;51.046;13.796;2022-11-02T07:34:04;22.67;;;10.17;;
62798;SDS011;48842;51.046;13.796;2022-11-02T07:36:30;19.87;;;10.37;;
62798;SDS011;48842;51.046;13.796;2022-11-02T07:38:55;20.17;;;9.27;;
62798;SDS011;48842;51.046;13.796;2022-11-02T07:41:20;16.87;;;9.23;;
62798;SDS011;48842;51.046;13.796;2022-11-02T07:43:45;19.47;;;9.23;;
62798;SDS011;48842;51.046;13.796;2022-11-02T07:46:11;22.37;;;9.70;;
62798;SDS011;48842;51.046;13.796;2022-11-02T07:48:36;20.23;;;10.00;;
62798;SDS011;48842;51.046;13.796;2022-11-02T07:51:01;25.90;;;10.83;;
62798;SDS011;48842;51.046;13.796;2022-11-02T07:53:27;20.73;;;9.80;;
62798;SDS011;48842;51.046;13.796;2022-11-02T07:55:52;25.43;;;10.17;;
62798;SDS011;48842;51.046;13.796;2022-11-02T07:58:17;24.47;;;10.47;;
62798;SDS011;48842;51.046;13.796;2022-11-02T08:00:42;16.47;;;10.40;;
62798;SDS011;48842;51.046;13.796;2022-11-02T08:03:08;18.90;;;10.43;;
62798;SDS011;48842;51.046;13.796;2022-11-02T08:05:36;16.47;;;10.13;;
62798;SDS011;48842;51.046;13.796;2022-11-02T08:08:04;28.57;;;11.27;;
62798;SDS011;48842;51.046;13.796;2022-11-02T08:10:32;19.10;;;11.30;;
62798;SDS011;48842;51.046;13.796;2022-11-02T08:12:58;19.57;;;9.80;;
62798;SDS011;48842;51.046;13.796;2022-11-02T08:15:23;19.93;;;9.90;;
62798;SDS011;48842;51.046;13.796;2022-11-02T08:20:48;23.97;;;11.20;;
62798;SDS011;48842;51.046;13.796;2022-11-02T08:23:15;22.83;;;10.00;;
62798;SDS011;48842;51.046;13.796;2022-11-02T08:25:42;18.67;;;10.57;;
62798;SDS011;48842;51.046;13.796;2022-11-02T08:28:11;23.30;;;11.07;;
62798;SDS011;48842;51.046;13.796;2022-11-02T08:30:38;16.90;;;9.23;;
62798;SDS011;48842;51.046;13.796;2022-11-02T08:33:04;15.93;;;8.30;;
62798;SDS011;48842;51.046;13.796;2022-11-02T08:35:31;24.43;;;9.23;;
62798;SDS011;48842;51.046;13.796;2022-11-02T08:37:57;16.10;;;8.63;;
62798;SDS011;48842;51.046;13.796;2022-11-02T08:40:23;18.50;;;9.83;;
62798;SDS011;48842;51.046;13.796;2022-11-02T08:42:54;14.10;;;8.60;;
62798;SDS011;48842;51.046;13.796;2022-11-02T08:45:20;16.07;;;8.17;;
62798;SDS011;48842;51.046;13.796;2022-11-02T08:47:45;19.03;;;8.00;;
62798;SDS011;48842;51.046;13.796;2022-11-02T08:50:10;18.27;;;7.43;;
62798;SDS011;48842;51.046;13.796;2022-11-02T08:52:36;14.90;;;8.40;;
62798;SDS011;48842;51.046;13.796;2022-11-02T08:55:02;12.73;;;6.23;;
62798;SDS011;48842;51.046;13.796;2022-11-02T08:57:28;14.97;;;5.67;;
62798;SDS011;48842;51.046;13.796;2022-11-02T08:59:54;12.93;;;6.20;;
62798;SDS011;48842;51.046;13.796;2022-11-02T09:02:19;13.10;;;6.07;;
62798;SDS011;48842;51.046;13.796;2022-11-02T09:04:44;13.00;;;4.07;;
62798;SDS011;48842;51.046;13.796;2022-11-02T09:07:09;20.30;;;4.13;;
62798;SDS011;48842;51.046;13.796;2022-11-02T09:09:35;7.87;;;2.70;;
62798;SDS011;48842;51.046;13.796;2022-11-02T09:12:00;11.03;;;2.60;;
62798;SDS011;48842;51.046;13.796;2022-11-02T09:14:25;13.00;;;2.93;;
62798;SDS011;48842;51.046;13.796;2022-11-02T09:16:51;11.17;;;2.87;;
62798;SDS011;48842;51.046;13.796;2022-11-02T09:19:16;13.07;;;3.00;;
62798;SDS011;48842;51.046;13.796;2022-11-02T09:21:41;8.63;;;2.53;;
62798;SDS011;48842;51.046;13.796;2022-11-02T09:24:06;14.57;;;3.23;;
62798;SDS011;48842;51.046;13.796;2022-11-02T09:26:32;15.47;;;2.70;;
62798;SDS011;48842;51.046;13.796;2022-11-02T09:28:57;6.73;;;2.00;;
62798;SDS011;48842;51.046;13.796;2022-11-02T09:31:22;65.43;;;2.90;;
62798;SDS011;48842;51.046;13.796;2022-11-02T09:33:48;8.57;;;2.17;;
62798;SDS011;48842;51.046;13.796;2022-11-02T09:36:13;27.63;;;2.90;;
62798;SDS011;48842;51.046;13.796;2022-11-02T09:38:39;14.77;;;2.70;;
62798;SDS011;48842;51.046;13.796;2022-11-02T09:46:14;9.90;;;2.50;;
62798;SDS011;48842;51.046;13.796;2022-11-02T09:51:18;11.10;;;2.60;;
62798;SDS011;48842;51.046;13.796;2022-11-02T09:56:16;8.53;;;2.33;;
62798;SDS011;48842;51.046;13.796;2022-11-02T09:58:43;7.97;;;1.90;;
62798;SDS011;48842;51.046;13.796;2022-11-02T10:01:18;11.63;;;2.30;;
62798;SDS011;48842;51.046;13.796;2022-11-02T10:04:02;7.50;;;2.33;;
62798;SDS011;48842;51.046;13.796;2022-11-02T10:06:40;8.20;;;2.00;;
62798;SDS011;48842;51.046;13.796;2022-11-02T10:09:15;6.10;;;2.20;;
62798;SDS011;48842;51.046;13.796;2022-11-02T10:12:02;9.80;;;2.20;;
62798;SDS011;48842;51.046;13.796;2022-11-02T10:14:50;6.50;;;1.87;;
62798;SDS011;48842;51.046;13.796;2022-11-02T10:17:26;4.60;;;1.77;;
62798;SDS011;48842;51.046;13.796;2022-11-02T10:19:55;5.73;;;1.90;;
62798;SDS011;48842;51.046;13.796;2022-11-02T10:22:23;6.13;;;1.40;;
62798;SDS011;48842;51.046;13.796;2022-11-02T10:24:53;8.30;;;1.97;;
62798;SDS011;48842;51.046;13.796;2022-11-02T10:27:24;4.27;;;1.60;;
62798;SDS011;48842;51.046;13.796;2022-11-02T10:30:35;6.93;;;1.90;;
62798;SDS011;48842;51.046;13.796;2022-11-02T10:32:43;15.90;;;1.70;;
62798;SDS011;48842;51.046;13.796;2022-11-02T10:38:01;8.23;;;2.10;;
62798;SDS011;48842;51.046;13.796;2022-11-02T10:48:54;10.10;;;2.10;;
62798;SDS011;48842;51.046;13.796;2022-11-02T10:51:29;5.23;;;1.80;;
62798;SDS011;48842;51.046;13.796;2022-11-02T10:53:55;4.23;;;1.50;;
62798;SDS011;48842;51.046;13.796;2022-11-02T10:56:21;5.53;;;2.00;;
62798;SDS011;48842;51.046;13.796;2022-11-02T10:58:49;8.87;;;2.27;;
62798;SDS011;48842;51.046;13.796;2022-11-02T11:01:21;12.03;;;2.70;;
62798;SDS011;48842;51.046;13.796;2022-11-02T11:03:53;5.13;;;1.77;;
62798;SDS011;48842;51.046;13.796;2022-11-02T11:06:26;10.10;;;1.97;;
62798;SDS011;48842;51.046;13.796;2022-11-02T11:08:58;9.27;;;2.07;;
62798;SDS011;48842;51.046;13.796;2022-11-02T11:12:03;4.50;;;1.83;;
62798;SDS011;48842;51.046;13.796;2022-11-02T11:14:43;10.47;;;2.17;;
62798;SDS011;48842;51.046;13.796;2022-11-02T11:17:15;6.67;;;1.90;;
62798;SDS011;48842;51.046;13.796;2022-11-02T11:19:47;8.00;;;2.20;;
62798;SDS011;48842;51.046;13.796;2022-11-02T11:22:28;5.20;;;1.40;;
62798;SDS011;48842;51.046;13.796;2022-11-02T11:27:52;8.30;;;2.00;;
62798;SDS011;48842;51.046;13.796;2022-11-02T11:30:23;8.13;;;2.20;;
62798;SDS011;48842;51.046;13.796;2022-11-02T11:32:48;4.50;;;1.67;;
62798;SDS011;48842;51.046;13.796;2022-11-02T11:35:15;6.90;;;2.53;;
62798;SDS011;48842;51.046;13.796;2022-11-02T11:37:49;16.43;;;1.90;;
62798;SDS011;48842;51.046;13.796;2022-11-02T11:40:19;13.40;;;2.60;;
62798;SDS011;48842;51.046;13.796;2022-11-02T11:42:45;13.13;;;2.03;;
62798;SDS011;48842;51.046;13.796;2022-11-02T11:45:21;7.13;;;1.57;;
62798;SDS011;48842;51.046;13.796;2022-11-02T11:47:52;11.03;;;1.80;;
62798;SDS011;48842;51.046;13.796;2022-11-02T11:50:26;14.80;;;2.07;;
62798;SDS011;48842;51.046;13.796;2022-11-02T11:55:51;3.93;;;1.60;;
62798;SDS011;48842;51.046;13.796;2022-11-02T12:03:56;10.13;;;1.80;;
62798;SDS011;48842;51.046;13.796;2022-11-02T12:09:11;10.57;;;1.90;;
62798;SDS011;48842;51.046;13.796;2022-11-02T12:11:46;6.10;;;2.23;;
62798;SDS011;48842;51.046;13.796;2022-11-02T12:22:33;4.93;;;1.53;;
62798;SDS011;48842;51.046;13.796;2022-11-02T12:25:26;6.00;;;2.43;;
62798;SDS011;48842;51.046;13.796;2022-11-02T12:28:06;6.53;;;2.30;;
62798;SDS011;48842;51.046;13.796;2022-11-02T12:30:49;5.40;;;1.70;;
62798;SDS011;48842;51.046;13.796;2022-11-02T12:41:27;8.10;;;2.30;;
62798;SDS011;48842;51.046;13.796;2022-11-02T12:46:55;5.90;;;2.20;;
62798;SDS011;48842;51.046;13.796;2022-11-02T12:52:15;11.40;;;3.03;;
62798;SDS011;48842;51.046;13.796;2022-11-02T12:55:01;6.67;;;2.13;;
62798;SDS011;48842;51.046;13.796;2022-11-02T12:57:30;6.20;;;2.83;;
62798;SDS011;48842;51.046;13.796;2022-11-02T13:00:00;6.10;;;2.10;;
62798;SDS011;48842;51.046;13.796;2022-11-02T13:03:13;4.53;;;1.70;;
62798;SDS011;48842;51.046;13.796;2022-11-02T13:05:38;12.03;;;2.57;;
62798;SDS011;48842;51.046;13.796;2022-11-02T13:08:18;9.50;;;2.40;;
62798;SDS011;48842;51.046;13.796;2022-11-02T13:10:51;5.90;;;2.03;;
62798;SDS011;48842;51.046;13.796;2022-11-02T13:13:44;7.03;;;1.77;;
62798;SDS011;48842;51.046;13.796;2022-11-02T13:16:10;7.23;;;2.10;;
62798;SDS011;48842;51.046;13.796;2022-11-02T13:18:40;6.37;;;1.83;;
62798;SDS011;48842;51.046;13.796;2022-11-02T13:21:10;3.53;;;1.67;;
62798;SDS011;48842;51.046;13.796;2022-11-02T13:23:51;7.40;;;1.83;;
62798;SDS011;48842;51.046;13.796;2022-11-02T13:33:55;12.87;;;2.17;;
62798;SDS011;48842;51.046;13.796;2022-11-02T13:36:24;6.67;;;2.20;;
62798;SDS011;48842;51.046;13.796;2022-11-02T13:39:00;9.03;;;1.90;;
62798;SDS011;48842;51.046;13.796;2022-11-02T13:42:16;22.50;;;2.70;;
62798;SDS011;48842;51.046;13.796;2022-11-02T13:50:41;6.30;;;1.60;;
62798;SDS011;48842;51.046;13.796;2022-11-02T13:53:11;8.83;;;1.40;;
62798;SDS011;48842;51.046;13.796;2022-11-02T13:55:53;7.37;;;1.70;;
62798;SDS011;48842;51.046;13.796;2022-11-02T13:58:25;4.63;;;1.53;;
62798;SDS011;48842;51.046;13.796;2022-11-02T14:01:00;7.57;;;1.63;;
62798;SDS011;48842;51.046;13.796;2022-11-02T14:03:30;6.43;;;2.00;;
62798;SDS011;48842;51.046;13.796;2022-11-02T14:06:12;9.10;;;2.37;;
62798;SDS011;48842;51.046;13.796;2022-11-02T14:08:40;4.40;;;2.03;;
62798;SDS011;48842;51.046;13.796;2022-11-02T14:19:26;5.67;;;2.47;;
62798;SDS011;48842;51.046;13.796;2022-11-02T14:22:12;9.17;;;2.57;;
62798;SDS011;48842;51.046;13.796;2022-11-02T14:40:16;4.80;;;1.47;;
62798;SDS011;48842;51.046;13.796;2022-11-02T14:46:10;5.20;;;1.70;;
62798;SDS011;48842;51.046;13.796;2022-11-02T14:48:56;5.10;;;1.57;;
62798;SDS011;48842;51.046;13.796;2022-11-02T14:51:25;7.97;;;1.70;;
62798;SDS011;48842;51.046;13.796;2022-11-02T14:54:00;4.57;;;1.50;;
62798;SDS011;48842;51.046;13.796;2022-11-02T14:59:34;7.13;;;1.90;;
62798;SDS011;48842;51.046;13.796;2022-11-02T15:02:03;4.93;;;1.90;;
62798;SDS011;48842;51.046;13.796;2022-11-02T15:04:35;3.63;;;1.50;;
62798;SDS011;48842;51.046;13.796;2022-11-02T15:07:02;9.37;;;1.80;;
62798;SDS011;48842;51.046;13.796;2022-11-02T15:12:47;4.10;;;1.77;;
62798;SDS011;48842;51.046;13.796;2022-11-02T15:15:29;7.00;;;2.00;;
62798;SDS011;48842;51.046;13.796;2022-11-02T15:22:59;4.20;;;2.00;;
62798;SDS011;48842;51.046;13.796;2022-11-02T15:25:38;5.43;;;2.20;;
62798;SDS011;48842;51.046;13.796;2022-11-02T15:28:13;9.00;;;1.93;;
62798;SDS011;48842;51.046;13.796;2022-11-02T15:30:52;7.77;;;2.70;;
62798;SDS011;48842;51.046;13.796;2022-11-02T15:35:52;5.50;;;1.90;;
62798;SDS011;48842;51.046;13.796;2022-11-02T15:38:18;6.40;;;2.20;;
62798;SDS011;48842;51.046;13.796;2022-11-02T15:40:52;6.23;;;2.67;;
62798;SDS011;48842;51.046;13.796;2022-11-02T15:46:44;4.97;;;2.70;;
62798;SDS011;48842;51.046;13.796;2022-11-02T15:52:14;7.73;;;2.10;;
62798;SDS011;48842;51.046;13.796;2022-11-02T15:58:14;18.23;;;2.20;;
62798;SDS011;48842;51.046;13.796;2022-11-02T16:01:02;9.63;;;2.00;;
62798;SDS011;48842;51.046;13.796;2022-11-02T16:03:50;4.63;;;2.50;;
62798;SDS011;48842;51.046;13.796;2022-11-02T16:06:28;6.10;;;2.60;;
62798;SDS011;48842;51.046;13.796;2022-11-02T16:08:55;4.73;;;2.70;;
62798;SDS011;48842;51.046;13.796;2022-11-02T16:11:22;9.23;;;3.33;;
62798;SDS011;48842;51.046;13.796;2022-11-02T16:13:48;11.20;;;3.00;;
62798;SDS011;48842;51.046;13.796;2022-11-02T16:16:15;8.50;;;3.60;;
62798;SDS011;48842;51.046;13.796;2022-11-02T16:18:43;8.27;;;3.03;;
62798;SDS011;48842;51.046;13.796;2022-11-02T16:21:13;6.77;;;2.63;;
62798;SDS011;48842;51.046;13.796;2022-11-02T16:23:51;10.83;;;4.00;;
62798;SDS011;48842;51.046;13.796;2022-11-02T16:26:20;9.50;;;3.40;;
62798;SDS011;48842;51.046;13.796;2022-11-02T16:28:54;9.97;;;3.97;;
62798;SDS011;48842;51.046;13.796;2022-11-02T16:31:22;11.30;;;3.40;;
62798;SDS011;48842;51.046;13.796;2022-11-02T16:33:55;7.40;;;2.70;;
62798;SDS011;48842;51.046;13.796;2022-11-02T16:36:26;7.30;;;2.97;;
62798;SDS011;48842;51.046;13.796;2022-11-02T16:41:23;15.47;;;2.97;;
62798;SDS011;48842;51.046;13.796;2022-11-02T16:43:51;7.00;;;3.50;;
62798;SDS011;48842;51.046;13.796;2022-11-02T16:46:18;8.40;;;2.70;;
62798;SDS011;48842;51.046;13.796;2022-11-02T16:49:13;11.90;;;2.60;;
62798;SDS011;48842;51.046;13.796;2022-11-02T16:54:25;10.63;;;2.33;;
62798;SDS011;48842;51.046;13.796;2022-11-02T16:59:54;7.60;;;3.30;;
62798;SDS011;48842;51.046;13.796;2022-11-02T17:02:36;5.67;;;2.70;;
62798;SDS011;48842;51.046;13.796;2022-11-02T17:05:03;6.13;;;2.80;;
62798;SDS011;48842;51.046;13.796;2022-11-02T17:07:31;10.27;;;2.53;;
62798;SDS011;48842;51.046;13.796;2022-11-02T17:10:00;7.13;;;2.30;;